Time;durP1;ratioP1;P1;durP2;ratioP2;P2;SDS_P1;SDS_P2;PMS_P1;PMS_P2;Temp;Humidity;BMP_temperature;BMP_pressure;BME280_temperature;BME280_humidity;BME280_pressure;Samples;Min_cycle;Max_cycle;Signal;HPM_P1;HPM_P2
2023/05/02 00:00:06;;;;;;;27.13;20.48;;;;;;;11.64;90.52;101923.66;5053137;28;20032;-51
2023/05/02 00:02:32;;;;;;;28.17;21.00;;;;;;;11.64;90.78;101925.44;5051703;28;20043;-53
2023/05/02 00:04:57;;;;;;;27.67;20.67;;;;;;;11.65;90.25;101937.81;5043624;28;20029;-51
2023/05/02 00:07:23;;;;;;;32.40;21.98;;;;;;;11.65;91.19;101935.97;5049361;28;20025;-52
2023/05/02 00:09:48;;;;;;;30.83;22.33;;;;;;;11.59;91.18;101936.41;5052421;28;20045;-51
2023/05/02 00:12:13;;;;;;;29.20;21.55;;;;;;;11.57;91.75;101940.94;5052623;28;20471;-51
2023/05/02 00:14:38;;;;;;;28.35;22.15;;;;;;;11.56;91.07;101933.94;5052025;28;20033;-51
2023/05/02 00:17:04;;;;;;;30.27;21.70;;;;;;;11.53;91.36;101939.44;5052219;28;20032;-51
2023/05/02 00:19:29;;;;;;;30.45;22.27;;;;;;;11.57;91.06;101948.06;5052226;28;20319;-51
2023/05/02 00:21:54;;;;;;;29.90;21.60;;;;;;;11.53;91.63;101936.78;5052123;28;20032;-51
2023/05/02 00:24:20;;;;;;;28.10;21.50;;;;;;;11.53;91.42;101952.75;5052542;28;20033;-51
2023/05/02 00:26:45;;;;;;;28.63;21.52;;;;;;;11.53;91.70;101951.91;5051940;28;20025;-52
2023/05/02 00:29:11;;;;;;;27.63;20.98;;;;;;;11.53;91.96;101943.91;5052522;28;20028;-52
2023/05/02 00:31:36;;;;;;;27.42;20.83;;;;;;;11.47;92.16;101954.00;5049912;28;20111;-50
2023/05/02 00:34:01;;;;;;;26.52;20.65;;;;;;;11.48;92.29;101957.50;5052431;28;20048;-51
2023/05/02 00:36:27;;;;;;;29.52;21.08;;;;;;;11.50;91.67;101952.94;5052055;28;20052;-51
2023/05/02 00:38:52;;;;;;;27.35;20.83;;;;;;;11.50;92.10;101954.75;5051842;28;20505;-51
2023/05/02 00:41:17;;;;;;;27.85;21.52;;;;;;;11.44;91.80;101959.50;5049570;28;20040;-51
2023/05/02 00:43:43;;;;;;;30.08;21.30;;;;;;;11.42;92.43;101958.75;5051478;28;20108;-52
2023/05/02 00:46:10;;;;;;;26.83;19.35;;;;;;;11.40;92.57;101963.28;5052251;28;20619;-54
2023/05/02 00:48:36;;;;;;;25.65;18.10;;;;;;;11.37;92.12;101957.31;5052543;28;20100;-52
2023/05/02 00:51:04;;;;;;;24.90;17.38;;;;;;;11.34;92.93;101966.34;5051223;28;20099;-54
2023/05/02 00:53:30;;;;;;;23.35;17.15;;;;;;;11.32;92.22;101965.56;5052022;28;20032;-52
2023/05/02 00:55:57;;;;;;;22.40;16.45;;;;;;;11.30;92.63;101970.13;5051639;28;20470;-55
2023/05/02 00:58:22;;;;;;;22.38;16.50;;;;;;;11.28;92.87;101975.53;5051659;28;20021;-55
2023/05/02 01:01:28;;;;;;;21.45;16.75;;;;;;;11.28;92.10;101966.72;5051269;28;20639;-55
2023/05/02 01:06:57;;;;;;;19.35;14.45;;;;;;;11.26;92.53;101965.97;5302695;22;20046;-85
2023/05/02 01:09:38;;;;;;;19.42;14.40;;;;;;;11.24;92.34;101966.06;5032882;28;20171;-86
2023/05/02 01:12:13;;;;;;;20.65;15.38;;;;;;;11.17;92.25;101963.84;5033261;28;20034;-86
2023/05/02 01:14:46;;;;;;;19.05;14.77;;;;;;;11.18;92.47;101973.56;5036922;28;20437;-86
2023/05/02 01:17:14;;;;;;;21.75;14.85;;;;;;;11.05;91.88;101945.03;5036986;28;20032;-85
2023/05/02 01:19:43;;;;;;;19.93;12.50;;;;;;;11.13;90.66;101970.31;5037812;28;20040;-86
2023/05/02 01:22:12;;;;;;;18.67;12.00;;;;;;;11.10;90.97;101961.56;5036747;28;20033;-86
2023/05/02 01:24:52;;;;;;;16.05;11.20;;;;;;;11.08;90.71;101965.28;5036049;28;20359;-85
2023/05/02 01:27:29;;;;;;;15.15;11.25;;;;;;;11.06;91.03;101970.69;5035537;28;20121;-86
2023/05/02 01:29:57;;;;;;;18.95;11.20;;;;;;;10.97;91.09;101968.56;5035684;28;20131;-86
2023/05/02 01:32:26;;;;;;;17.08;11.75;;;;;;;10.98;90.90;101966.78;5037011;28;20033;-86
2023/05/02 01:34:55;;;;;;;15.88;10.80;;;;;;;10.97;91.46;101967.72;5036330;28;20030;-86
2023/05/02 01:37:22;;;;;;;17.10;11.50;;;;;;;10.97;90.48;101971.22;5037066;28;20139;-86
2023/05/02 01:39:49;;;;;;;15.90;10.40;;;;;;;10.93;91.31;101967.91;5036825;28;20368;-86
2023/05/02 01:42:17;;;;;;;14.65;10.75;;;;;;;10.86;91.51;101958.59;5037188;28;20375;-86
2023/05/02 01:44:43;;;;;;;17.17;11.23;;;;;;;10.91;91.58;101980.44;5040707;28;20348;-85
2023/05/02 01:47:09;;;;;;;16.55;12.23;;;;;;;10.85;91.56;101966.66;5041153;28;20095;-85
2023/05/02 01:49:35;;;;;;;15.65;11.23;;;;;;;10.87;91.43;101964.75;5041203;28;20037;-85
2023/05/02 01:52:33;;;;;;;15.27;11.38;;;;;;;10.91;91.40;101971.63;5041228;28;20032;-86
2023/05/02 01:55:00;;;;;;;14.60;11.13;;;;;;;10.83;91.99;101969.41;5021700;28;20037;-86
2023/05/02 01:57:26;;;;;;;16.95;11.30;;;;;;;10.76;92.32;101959.22;5040244;28;20423;-86
2023/05/02 01:59:55;;;;;;;16.20;11.40;;;;;;;10.84;92.61;101978.22;5040782;28;20040;-86
2023/05/02 02:02:21;;;;;;;;;;;;;;;11.01;89.80;101996.69;5040787;28;20431;-85
2023/05/02 02:04:48;;;;;;;17.73;11.98;;;;;;;10.92;92.51;101994.56;5041197;28;19913;-85
2023/05/02 02:07:13;;;;;;;18.02;11.70;;;;;;;10.79;91.56;101981.19;5040485;28;20060;-86
2023/05/02 02:09:39;;;;;;;18.33;12.82;;;;;;;10.84;92.61;101987.06;5040363;28;20108;-85
2023/05/02 02:12:10;;;;;;;16.55;12.43;;;;;;;10.87;93.07;102002.81;5028180;28;20072;-86
2023/05/02 02:14:39;;;;;;;16.60;12.82;;;;;;;10.64;93.40;101972.31;5040428;28;20029;-86
2023/05/02 02:17:12;;;;;;;20.92;13.38;;;;;;;10.85;93.03;102006.53;5040447;28;20033;-86
2023/05/02 02:19:39;;;;;;;19.83;13.23;;;;;;;10.82;94.01;102002.22;5039111;28;20025;-85
2023/05/02 02:22:06;;;;;;;16.33;12.10;;;;;;;10.80;93.59;102000.63;5040215;28;20040;-85
2023/05/02 02:24:35;;;;;;;19.55;13.18;;;;;;;10.83;94.13;102014.59;5039994;28;20029;-86
2023/05/02 02:27:01;;;;;;;19.75;13.52;;;;;;;10.81;94.11;102013.84;5037076;28;20040;-86
2023/05/02 02:29:27;;;;;;;17.25;13.52;;;;;;;10.81;94.09;102016.50;5039075;28;20032;-86
2023/05/02 02:31:52;;;;;;;20.10;13.35;;;;;;;10.76;94.34;102009.72;5020238;28;20025;-85
2023/05/02 02:34:18;;;;;;;18.80;13.70;;;;;;;10.74;94.59;102008.03;5031192;28;20080;-86
2023/05/02 02:36:47;;;;;;;20.67;14.55;;;;;;;10.76;95.24;102012.38;5039476;28;20077;-86
2023/05/02 02:39:38;;;;;;;17.58;13.27;;;;;;;10.77;94.84;102012.28;5039835;28;20079;-86
2023/05/02 02:42:17;;;;;;;16.98;13.25;;;;;;;10.76;94.20;102021.22;5027970;28;20340;-86
2023/05/02 02:44:50;;;;;;;19.00;14.02;;;;;;;10.75;95.35;102024.81;5027441;28;20044;-85
2023/05/02 02:47:28;;;;;;;19.55;13.77;;;;;;;10.70;95.12;102018.91;5040098;28;20684;-85
2023/05/02 02:50:13;;;;;;;20.02;14.57;;;;;;;10.72;95.66;102030.31;5040668;28;20049;-85
2023/05/02 02:52:52;;;;;;;17.08;13.13;;;;;;;10.71;95.73;102037.44;5040323;28;20025;-85
2023/05/02 02:55:43;;;;;;;20.73;14.40;;;;;;;10.74;95.15;102034.59;5039609;28;20038;-85
2023/05/02 02:58:24;;;;;;;19.08;14.35;;;;;;;10.74;95.70;102031.94;5040853;28;20021;-85
2023/05/02 03:00:50;;;;;;;19.92;14.40;;;;;;;10.69;96.48;102039.31;5041629;28;20033;-85
2023/05/02 03:03:17;;;;;;;18.27;13.63;;;;;;;10.62;96.43;102026.47;5040242;28;20029;-85
2023/05/02 03:05:43;;;;;;;17.63;12.73;;;;;;;10.65;96.94;102037.78;5039582;28;20025;-85
2023/05/02 03:08:09;;;;;;;17.27;12.60;;;;;;;10.65;96.58;102045.75;5039556;28;20054;-85
2023/05/02 03:10:34;;;;;;;17.83;11.68;;;;;;;10.64;96.41;102045.84;5028837;28;20155;-86
2023/05/02 03:12:59;;;;;;;14.23;11.02;;;;;;;10.68;96.77;102047.38;5038252;28;20379;-87
2023/05/02 03:15:58;;;;;;;14.35;11.15;;;;;;;10.71;96.42;102055.19;5039730;28;20034;-86
2023/05/02 03:18:23;;;;;;;16.20;10.90;;;;;;;10.68;96.77;102058.00;5040129;28;20037;-85
2023/05/02 03:20:48;;;;;;;13.45;10.15;;;;;;;10.68;97.19;102065.97;5038327;28;20029;-85
2023/05/02 03:23:13;;;;;;;15.65;10.70;;;;;;;10.65;97.66;102060.84;5036754;28;20039;-85
2023/05/02 03:25:39;;;;;;;14.35;9.65;;;;;;;10.68;96.77;102065.97;5038808;28;20378;-85
2023/05/02 03:28:04;;;;;;;14.73;10.18;;;;;;;10.69;97.65;102062.34;5038533;28;20040;-85
2023/05/02 03:30:30;;;;;;;19.70;10.85;;;;;;;10.68;97.56;102063.31;5039469;28;20064;-85
2023/05/02 03:32:55;;;;;;;19.77;10.68;;;;;;;10.65;98.14;102069.66;5035358;28;20025;-86
2023/05/02 03:35:21;;;;;;;16.77;10.43;;;;;;;10.67;97.94;102069.56;5037203;28;20359;-85
2023/05/02 03:37:46;;;;;;;15.90;10.65;;;;;;;10.65;98.38;102061.69;5036244;28;21374;-86
2023/05/02 03:40:12;;;;;;;17.63;10.27;;;;;;;10.58;98.27;102051.53;5037886;28;20029;-86
2023/05/02 03:42:40;;;;;;;19.23;11.02;;;;;;;10.65;98.41;102063.50;5038021;28;20083;-85
2023/05/02 03:45:07;;;;;;;16.98;11.32;;;;;;;10.64;97.95;102075.06;5037102;28;20022;-86
2023/05/02 03:47:33;;;;;;;18.10;10.85;;;;;;;10.54;98.65;102066.75;5036328;28;20029;-85
2023/05/02 03:50:01;;;;;;;14.68;10.18;;;;;;;10.57;98.04;102065.72;5036866;28;20025;-86
2023/05/02 03:52:27;;;;;;;17.83;10.70;;;;;;;10.62;98.61;102084.94;5035666;28;20072;-86
2023/05/02 03:54:55;;;;;;;17.52;10.23;;;;;;;10.58;98.33;102076.28;5030407;28;20037;-86
2023/05/02 03:57:21;;;;;;;17.67;10.00;;;;;;;10.58;97.82;102081.59;5034591;28;20017;-85
2023/05/02 03:59:46;;;;;;;17.33;10.02;;;;;;;10.56;97.86;102078.16;5036025;28;20379;-86
2023/05/02 04:02:12;;;;;;;16.45;8.82;;;;;;;10.60;97.21;102097.44;5036667;28;20068;-86
2023/05/02 04:04:38;;;;;;;15.73;7.88;;;;;;;10.56;97.18;102096.75;5035478;28;20041;-86
2023/05/02 04:07:06;;;;;;;13.07;6.93;;;;;;;10.51;96.29;102102.34;5036550;28;20140;-85
2023/05/02 04:09:32;;;;;;;16.00;6.70;;;;;;;10.47;96.51;102098.13;5037897;28;20022;-86
2023/05/02 04:11:57;;;;;;;11.85;6.20;;;;;;;10.44;96.01;102105.41;5035465;28;20032;-86
2023/05/02 04:14:22;;;;;;;11.32;5.75;;;;;;;10.46;95.54;102109.72;5036145;28;20036;-86
2023/05/02 04:16:49;;;;;;;9.80;5.28;;;;;;;10.38;95.46;102101.31;5025138;28;20097;-86
2023/05/02 04:19:17;;;;;;;9.77;5.07;;;;;;;10.43;94.77;102115.19;5040226;28;20085;-85
2023/05/02 04:21:42;;;;;;;13.27;5.32;;;;;;;10.45;95.33;102117.75;5041193;28;20025;-86
2023/05/02 04:24:08;;;;;;;12.27;5.40;;;;;;;10.37;94.77;102112.84;5038024;28;20025;-85
2023/05/02 04:26:33;;;;;;;12.25;5.25;;;;;;;10.37;94.48;102120.81;5041678;28;20402;-85
2023/05/02 04:28:58;;;;;;;11.95;5.43;;;;;;;10.40;94.35;102130.44;5041075;28;20064;-86
2023/05/02 04:31:24;;;;;;;13.75;5.78;;;;;;;10.35;94.47;102141.31;5021717;28;20036;-85
2023/05/02 04:33:49;;;;;;;13.70;5.50;;;;;;;10.32;94.21;102146.78;5029614;28;20021;-86
2023/05/02 04:36:15;;;;;;;14.25;6.53;;;;;;;10.32;94.15;102146.78;5039077;28;20521;-85
2023/05/02 04:38:40;;;;;;;9.75;5.30;;;;;;;10.28;93.68;102142.56;5041618;28;20434;-85
2023/05/02 04:41:06;;;;;;;11.75;5.13;;;;;;;10.29;93.41;102162.84;5046162;28;20434;-86
2023/05/02 04:43:31;;;;;;;11.70;4.25;;;;;;;10.29;92.75;102162.84;5044455;28;20026;-86
2023/05/02 04:45:57;;;;;;;11.43;3.70;;;;;;;10.26;92.05;102161.22;5039962;28;20014;-85
2023/05/02 04:48:24;;;;;;;9.02;2.95;;;;;;;10.12;89.03;102153.13;5043534;28;20026;-85
2023/05/02 04:50:52;;;;;;;9.10;2.88;;;;;;;10.17;88.78;102183.84;5043755;28;20041;-85
2023/05/02 04:53:18;;;;;;;8.53;2.37;;;;;;;10.12;87.56;102177.88;5051245;28;20029;-86
2023/05/02 04:56:04;;;;;;;6.30;2.30;;;;;;;10.15;86.69;102198.97;5053408;28;20033;-85
2023/05/02 04:58:29;;;;;;;7.93;2.42;;;;;;;10.13;85.80;102186.72;5044508;28;20029;-85
2023/05/02 05:00:55;;;;;;;7.38;2.83;;;;;;;10.03;86.05;102181.03;5052266;28;20040;-86
2023/05/02 05:03:20;;;;;;;6.80;2.55;;;;;;;10.13;85.76;102202.66;5052798;28;20037;-85
2023/05/02 05:05:46;;;;;;;8.40;2.70;;;;;;;10.08;85.28;102192.28;5051872;28;20017;-85
2023/05/02 05:08:12;;;;;;;7.72;2.35;;;;;;;10.10;84.65;102211.63;5051682;28;20038;-87
2023/05/02 05:10:39;;;;;;;10.18;2.50;;;;;;;10.08;84.31;102210.00;5050258;28;20068;-85
2023/05/02 05:13:04;;;;;;;7.20;2.60;;;;;;;10.01;84.39;102206.81;5049328;28;20033;-86
2023/05/02 05:15:30;;;;;;;8.90;2.33;;;;;;;10.09;84.57;102223.19;5041212;28;20049;-85
2023/05/02 05:17:55;;;;;;;5.85;2.47;;;;;;;10.12;85.32;102225.66;5039536;28;20030;-86
2023/05/02 05:20:21;;;;;;;8.60;2.45;;;;;;;10.05;84.88;102220.78;5040441;28;20120;-85
2023/05/02 05:22:46;;;;;;;6.93;2.60;;;;;;;10.09;84.86;102228.50;5025304;28;20026;-86
2023/05/02 05:25:14;;;;;;;7.85;2.50;;;;;;;10.07;85.53;102214.44;5018238;28;20053;-85
2023/05/02 05:27:40;;;;;;;6.22;2.60;;;;;;;10.08;85.14;102207.34;5027934;28;20037;-86
2023/05/02 05:30:07;;;;;;;9.93;3.42;;;;;;;10.20;83.66;102233.25;5055356;28;20029;-82
2023/05/02 05:32:33;;;;;;;9.55;2.70;;;;;;;10.24;83.72;102241.91;5054451;28;20052;-82
2023/05/02 05:34:58;;;;;;;6.32;3.03;;;;;;;10.29;84.43;102237.19;5049047;28;20021;-83
2023/05/02 05:37:23;;;;;;;7.07;2.58;;;;;;;10.38;84.55;102236.75;5047125;28;20513;-83
2023/05/02 05:39:49;;;;;;;14.40;3.42;;;;;;;10.44;84.71;102243.53;5045440;28;20079;-83
2023/05/02 05:42:14;;;;;;;7.68;3.10;;;;;;;10.50;84.72;102245.84;5043343;28;20037;-82
2023/05/02 05:44:39;;;;;;;8.93;2.90;;;;;;;10.58;85.39;102248.13;5042417;28;20040;-82
2023/05/02 05:47:05;;;;;;;11.05;2.97;;;;;;;10.72;84.71;102242.88;5037161;28;20455;-82
2023/05/02 05:49:30;;;;;;;6.88;3.10;;;;;;;10.84;83.38;102251.97;5039599;28;20060;-84
2023/05/02 05:51:56;;;;;;;9.18;2.75;;;;;;;10.89;82.15;102242.84;5026539;28;20018;-85
2023/05/02 05:54:22;;;;;;;7.05;2.42;;;;;;;10.89;80.68;102253.47;5037351;28;20052;-85
2023/05/02 05:56:49;;;;;;;6.03;2.25;;;;;;;10.90;79.73;102259.63;5038414;28;20045;-83
2023/05/02 05:59:14;;;;;;;5.38;2.10;;;;;;;10.86;78.81;102253.63;5037820;28;20021;-84
2023/05/02 06:01:40;;;;;;;5.15;2.10;;;;;;;10.95;79.67;102257.56;5042151;28;20033;-83
2023/05/02 06:04:06;;;;;;;8.90;2.10;;;;;;;10.91;78.50;102264.88;5042523;28;20458;-84
2023/05/02 06:06:32;;;;;;;7.78;2.50;;;;;;;10.89;77.49;102261.44;5037166;28;20037;-83
2023/05/02 06:08:58;;;;;;;4.50;2.10;;;;;;;10.87;77.26;102265.97;5037709;28;20025;-84
2023/05/02 06:11:25;;;;;;;5.20;2.50;;;;;;;10.96;76.81;102274.38;5039201;28;20038;-84
2023/05/02 06:13:53;;;;;;;6.18;2.10;;;;;;;10.89;76.49;102276.50;5048571;28;20032;-84
2023/05/02 06:16:19;;;;;;;5.27;2.43;;;;;;;10.88;75.79;102274.81;5047166;28;20038;-84
2023/05/02 06:18:45;;;;;;;9.25;2.25;;;;;;;10.97;76.77;102284.91;5055700;28;20025;-84
2023/05/02 06:21:10;;;;;;;7.20;2.00;;;;;;;11.00;76.29;102294.53;5036382;28;20090;-84
2023/05/02 06:23:36;;;;;;;9.43;2.22;;;;;;;11.01;75.63;102285.63;5036122;28;20029;-84
2023/05/02 06:26:19;;;;;;;5.50;2.10;;;;;;;11.09;76.57;102292.22;5049207;28;20037;-84
2023/05/02 06:28:44;;;;;;;5.22;2.13;;;;;;;11.21;76.54;102288.03;5055883;28;20026;-84
2023/05/02 06:31:09;;;;;;;6.55;2.55;;;;;;;11.33;75.01;102299.78;5057274;28;20032;-84
2023/05/02 06:33:35;;;;;;;8.10;2.05;;;;;;;11.41;74.69;102308.19;5068185;28;20025;-83
2023/05/02 06:36:01;;;;;;;6.50;2.30;;;;;;;11.51;73.24;102310.31;5052364;28;20022;-84
2023/05/02 06:38:27;;;;;;;6.68;2.30;;;;;;;11.56;73.82;102306.44;5056387;28;20024;-84
2023/05/02 06:40:52;;;;;;;7.05;2.20;;;;;;;11.71;73.56;102307.38;5057183;28;20021;-84
2023/05/02 06:43:18;;;;;;;9.43;2.22;;;;;;;11.80;73.51;102327.25;5056246;28;20521;-85
2023/05/02 06:45:44;;;;;;;11.65;2.40;;;;;;;11.91;71.73;102330.19;5051527;28;20108;-85
2023/05/02 06:48:09;;;;;;;6.47;2.40;;;;;;;11.89;72.16;102337.41;5054161;28;20017;-84
2023/05/02 06:50:35;;;;;;;10.02;2.85;;;;;;;11.98;72.40;102344.84;5050784;28;20032;-84
2023/05/02 06:53:01;;;;;;;6.30;2.40;;;;;;;11.97;71.28;102345.81;5049687;28;20065;-84
2023/05/02 06:55:26;;;;;;;8.57;2.50;;;;;;;12.11;71.66;102347.66;5050641;28;20029;-85
2023/05/02 06:57:52;;;;;;;12.77;2.40;;;;;;;12.14;71.45;102344.81;5047611;28;20160;-85
2023/05/02 07:00:19;;;;;;;7.20;2.40;;;;;;;12.13;70.78;102347.56;5046393;28;20037;-85
2023/05/02 07:02:46;;;;;;;5.90;2.42;;;;;;;12.18;71.51;102356.16;5046938;28;20030;-84
2023/05/02 07:05:41;;;;;;;7.93;2.80;;;;;;;12.26;71.52;102361.00;5048622;28;20545;-84
2023/05/02 07:08:07;;;;;;;7.65;2.63;;;;;;;12.00;69.94;102326.97;5037978;28;20042;-85
2023/05/02 07:10:33;;;;;;;8.98;2.72;;;;;;;12.28;70.30;102367.97;5051383;28;20029;-84
2023/05/02 07:13:03;;;;;;;7.55;2.35;;;;;;;12.25;69.35;102365.50;5049966;28;20028;-84
2023/05/02 07:15:28;;;;;;;12.18;2.80;;;;;;;12.25;69.41;102375.28;5049974;28;20441;-85
2023/05/02 07:17:54;;;;;;;11.13;2.60;;;;;;;12.20;68.64;102371.06;5049676;28;20049;-84
2023/05/02 07:20:19;;;;;;;8.90;2.83;;;;;;;12.28;69.38;102380.44;5051514;28;20086;-84
2023/05/02 07:22:46;;;;;;;8.85;2.67;;;;;;;12.30;70.15;102382.06;5051235;28;20019;-84
2023/05/02 07:25:11;;;;;;;7.32;2.63;;;;;;;12.25;69.13;102394.78;5049135;28;20030;-85
2023/05/02 07:27:37;;;;;;;8.63;2.92;;;;;;;12.18;69.02;102391.63;5048758;28;20026;-84
2023/05/02 07:30:04;;;;;;;11.20;2.97;;;;;;;12.15;69.29;102389.13;5050343;28;20014;-84
2023/05/02 07:32:29;;;;;;;7.25;2.42;;;;;;;12.20;68.78;102399.53;5063219;28;20030;-84
2023/05/02 07:34:55;;;;;;;7.32;2.55;;;;;;;12.20;69.11;102397.72;5047693;28;20022;-85
2023/05/02 07:37:23;;;;;;;11.30;3.00;;;;;;;12.09;68.55;102393.97;5043018;28;20093;-85
2023/05/02 07:39:48;;;;;;;9.95;3.22;;;;;;;12.34;69.15;102404.91;5038329;28;20021;-84
2023/05/02 07:42:14;;;;;;;9.75;2.72;;;;;;;12.54;69.42;102409.06;5053327;28;20159;-85
2023/05/02 07:44:39;;;;;;;12.27;3.17;;;;;;;12.71;68.21;102402.69;5051792;28;20030;-84
2023/05/02 07:47:05;;;;;;;11.02;2.70;;;;;;;12.98;67.12;102403.78;5053336;28;20028;-84
2023/05/02 07:49:30;;;;;;;9.20;2.88;;;;;;;12.98;65.31;102403.78;5053009;28;20470;-85
2023/05/02 07:51:56;;;;;;;12.35;3.50;;;;;;;13.03;65.53;102409.69;5053270;28;20017;-85
2023/05/02 07:54:22;;;;;;;10.20;3.08;;;;;;;13.02;64.35;102405.28;5055527;28;20030;-85
2023/05/02 07:56:50;;;;;;;12.38;3.00;;;;;;;12.95;64.94;102415.47;5054197;28;20040;-84
2023/05/02 07:59:15;;;;;;;9.70;3.30;;;;;;;12.88;64.50;102420.34;5042111;28;20032;-84
2023/05/02 08:01:41;;;;;;;11.40;2.88;;;;;;;12.85;63.91;102419.66;5041504;28;20021;-84
2023/05/02 08:04:07;;;;;;;11.95;3.65;;;;;;;12.78;64.58;102420.03;5047093;28;20030;-84
2023/05/02 08:06:32;;;;;;;11.05;2.90;;;;;;;12.65;64.33;102403.06;5046769;28;20080;-84
2023/05/02 08:08:58;;;;;;;11.07;3.47;;;;;;;12.62;64.60;102419.25;5040598;28;20037;-84
2023/05/02 08:11:24;;;;;;;14.73;3.65;;;;;;;12.56;65.39;102435.63;5039511;28;20034;-83
2023/05/02 08:13:53;;;;;;;13.20;3.30;;;;;;;12.36;64.00;102428.81;5041849;28;20108;-83
2023/05/02 08:16:19;;;;;;;8.35;2.97;;;;;;;12.30;63.78;102430.00;5045465;28;20037;-83
2023/05/02 08:18:45;;;;;;;8.15;2.35;;;;;;;12.14;60.77;102446.03;5036228;28;20044;-83
2023/05/02 08:21:10;;;;;;;11.10;2.25;;;;;;;11.98;61.47;102448.72;5045588;28;20035;-83
2023/05/02 08:23:36;;;;;;;9.85;2.80;;;;;;;11.90;62.01;102442.09;5042494;28;20030;-85
2023/05/02 08:26:02;;;;;;;11.63;2.78;;;;;;;11.84;61.95;102452.13;5041061;28;20025;-84
2023/05/02 08:28:28;;;;;;;7.57;2.35;;;;;;;11.82;61.92;102463.78;5040045;28;20548;-84
2023/05/02 08:30:53;;;;;;;10.70;2.70;;;;;;;11.83;62.14;102465.53;5039491;28;20569;-84
2023/05/02 08:33:18;;;;;;;11.40;3.03;;;;;;;11.88;62.96;102471.44;5039342;28;20045;-85
2023/05/02 08:35:44;;;;;;;10.85;2.58;;;;;;;11.88;62.13;102467.94;5038692;28;20108;-85
2023/05/02 08:38:09;;;;;;;12.95;3.10;;;;;;;11.89;62.74;102467.84;5026162;28;20030;-84
2023/05/02 08:40:36;;;;;;;11.25;2.85;;;;;;;11.87;62.85;102466.22;5038642;28;20029;-84
2023/05/02 08:43:02;;;;;;;11.75;2.67;;;;;;;11.88;62.19;102481.25;5038373;28;20483;-83
2023/05/02 08:45:31;;;;;;;7.45;2.47;;;;;;;11.95;63.59;102485.31;5038188;28;20038;-85
2023/05/02 08:47:58;;;;;;;10.20;3.13;;;;;;;12.00;62.60;102476.09;5038541;28;20033;-84
2023/05/02 08:50:23;;;;;;;10.43;2.58;;;;;;;12.06;62.69;102471.38;5037833;28;20022;-84
2023/05/02 08:52:50;;;;;;;10.23;2.78;;;;;;;12.10;61.89;102471.13;5022106;28;20032;-84
2023/05/02 08:55:16;;;;;;;13.32;2.95;;;;;;;12.21;60.63;102486.50;5026334;28;20029;-84
2023/05/02 08:57:42;;;;;;;10.85;2.47;;;;;;;12.25;61.62;102485.38;5038367;28;20056;-85
2023/05/02 09:00:08;;;;;;;11.85;2.88;;;;;;;12.34;60.03;102490.19;5038484;28;20486;-84
2023/05/02 09:03:03;;;;;;;11.07;3.03;;;;;;;12.55;62.41;102489.88;5036710;28;20162;-85
2023/05/02 09:05:35;;;;;;;7.72;2.67;;;;;;;12.63;60.72;102481.44;5025880;28;20041;-85
2023/05/02 09:08:01;;;;;;;15.43;4.03;;;;;;;12.89;62.78;102487.84;5037282;28;20107;-85
2023/05/02 09:10:27;;;;;;;12.88;3.00;;;;;;;13.01;57.53;102495.13;5041710;28;20025;-84
2023/05/02 09:12:54;;;;;;;8.98;2.60;;;;;;;13.14;57.34;102493.44;5037850;28;20117;-85
2023/05/02 09:15:19;;;;;;;10.25;2.67;;;;;;;13.40;56.95;102498.13;5037555;28;20059;-84
2023/05/02 09:17:46;;;;;;;8.85;2.67;;;;;;;13.92;56.92;102496.66;5034911;28;20053;-84
2023/05/02 09:20:13;;;;;;;8.68;2.63;;;;;;;14.22;53.49;102491.13;5037047;28;20029;-85
2023/05/02 09:22:47;;;;;;;6.10;2.17;;;;;;;14.48;54.06;102493.88;5036984;28;20091;-83
2023/05/02 09:25:13;;;;;;;6.82;2.33;;;;;;;14.49;51.10;102493.78;5039013;28;20056;-84
2023/05/02 09:28:08;;;;;;;9.13;2.60;;;;;;;14.50;55.56;102503.50;5037483;28;20033;-83
2023/05/02 09:30:33;;;;;;;8.55;2.50;;;;;;;14.45;52.26;102489.59;5037001;28;20037;-83
2023/05/02 09:32:59;;;;;;;8.55;2.63;;;;;;;14.56;50.87;102503.09;5038530;28;20053;-84
2023/05/02 09:35:24;;;;;;;7.22;2.13;;;;;;;14.54;51.46;102499.69;5037523;28;20037;-83
2023/05/02 09:37:57;;;;;;;7.13;2.38;;;;;;;14.50;51.10;102508.84;5037762;28;20013;-84
2023/05/02 09:40:23;;;;;;;5.20;2.20;;;;;;;14.49;50.46;102517.84;5038258;28;20041;-84
2023/05/02 09:42:49;;;;;;;8.15;2.10;;;;;;;14.40;49.61;102513.94;5036524;28;20036;-83
2023/05/02 09:45:33;;;;;;;7.60;2.33;;;;;;;14.38;52.21;102515.88;5036796;28;20522;-84
2023/05/02 09:48:01;;;;;;;9.98;2.10;;;;;;;14.49;51.77;102519.66;5045933;28;20025;-84
2023/05/02 09:50:37;;;;;;;5.25;2.13;;;;;;;14.61;51.97;102516.22;5044545;28;20462;-85
2023/05/02 09:53:04;;;;;;;4.72;2.05;;;;;;;14.80;50.94;102518.47;5045392;28;20029;-84
2023/05/02 09:55:31;;;;;;;6.28;2.30;;;;;;;15.31;49.67;102526.56;5050503;28;20033;-84
2023/05/02 09:57:56;;;;;;;10.68;2.80;;;;;;;15.49;49.47;102526.25;5035168;28;20045;-84
2023/05/02 10:00:23;;;;;;;9.38;2.35;;;;;;;15.35;48.00;102508.47;5028963;28;20089;-84
2023/05/02 10:02:50;;;;;;;9.60;2.60;;;;;;;15.37;49.78;102525.28;5036985;28;20042;-85
2023/05/02 10:05:16;;;;;;;9.32;3.10;;;;;;;15.23;47.75;102518.22;5039759;28;20494;-84
2023/05/02 10:07:43;;;;;;;8.07;2.72;;;;;;;15.47;48.65;102529.03;5040743;28;20049;-85
2023/05/02 10:10:15;;;;;;;9.70;2.72;;;;;;;15.83;48.46;102522.03;5041613;28;20095;-85
2023/05/02 10:12:41;;;;;;;11.93;2.67;;;;;;;16.19;46.57;102523.00;5040133;28;20030;-84
2023/05/02 10:15:09;;;;;;;7.60;2.35;;;;;;;16.49;45.71;102526.16;5037948;28;20030;-85
2023/05/02 10:17:47;;;;;;;8.88;2.60;;;;;;;16.73;47.52;102520.78;5039474;28;20059;-84
2023/05/02 10:20:21;;;;;;;9.50;2.30;;;;;;;16.85;46.58;102529.75;5037259;28;20026;-84
2023/05/02 10:22:49;;;;;;;10.25;2.63;;;;;;;16.80;45.73;102524.72;5028535;28;20037;-84
2023/05/02 10:25:15;;;;;;;8.88;2.55;;;;;;;16.79;45.13;102531.06;5041089;28;20374;-83
2023/05/02 10:27:41;;;;;;;8.52;2.88;;;;;;;16.85;45.38;102537.81;5032593;28;20029;-83
2023/05/02 10:30:07;;;;;;;9.32;2.92;;;;;;;16.70;45.69;102540.66;5039682;28;20107;-84
2023/05/02 10:32:33;;;;;;;8.30;2.70;;;;;;;16.70;45.45;102539.81;5040916;28;20061;-84
2023/05/02 10:35:03;;;;;;;8.25;2.70;;;;;;;16.58;45.84;102542.44;5034441;28;20079;-84
2023/05/02 10:37:31;;;;;;;8.32;2.63;;;;;;;16.48;45.36;102546.78;5040690;28;20030;-85
2023/05/02 10:39:58;;;;;;;8.70;2.80;;;;;;;16.30;45.61;102553.50;5038987;28;20108;-84
2023/05/02 10:42:24;;;;;;;8.43;2.50;;;;;;;16.17;45.52;102546.38;5040712;28;20071;-84
2023/05/02 10:44:49;;;;;;;9.45;2.83;;;;;;;15.98;45.95;102549.53;5026305;28;20029;-83
2023/05/02 10:47:25;;;;;;;10.15;3.00;;;;;;;16.06;46.67;102543.63;5040482;28;20072;-84
2023/05/02 10:49:59;;;;;;;8.60;2.97;;;;;;;16.03;46.75;102539.34;5030052;28;20152;-84
2023/05/02 10:52:36;;;;;;;9.60;2.78;;;;;;;16.27;47.00;102544.72;5039593;28;20059;-84
2023/05/02 10:55:31;;;;;;;6.82;2.22;;;;;;;16.82;48.24;102538.88;5029140;28;20021;-85
2023/05/02 10:57:59;;;;;;;7.05;2.72;;;;;;;17.01;44.62;102544.56;5022202;28;20106;-84
2023/05/02 11:00:29;;;;;;;6.90;2.50;;;;;;;17.04;42.90;102546.16;5040809;28;20127;-85
2023/05/02 11:02:54;;;;;;;11.63;2.78;;;;;;;16.96;43.00;102549.44;5033013;28;20353;-85
2023/05/02 11:05:23;;;;;;;4.78;2.50;;;;;;;17.32;43.83;102541.31;5039325;28;20032;-85
2023/05/02 11:08:09;;;;;;;6.78;2.28;;;;;;;17.37;41.82;102536.47;5043699;28;20042;-85
2023/05/02 11:10:35;;;;;;;6.60;2.67;;;;;;;17.65;40.60;102547.69;5054900;28;20124;-85
2023/05/02 11:13:00;;;;;;;5.85;2.22;;;;;;;17.70;38.95;102549.06;5057188;28;20026;-84
2023/05/02 11:15:28;;;;;;;8.18;2.65;;;;;;;18.19;40.18;102548.78;5053905;28;20081;-83
2023/05/02 11:18:07;;;;;;;9.73;2.35;;;;;;;18.45;39.79;102543.91;5046559;28;20414;-83
2023/05/02 11:20:38;;;;;;;5.57;2.25;;;;;;;18.62;38.46;102535.28;5041243;28;20042;-83
2023/05/02 11:23:20;;;;;;;5.15;2.30;;;;;;;18.57;39.06;102542.91;5053926;28;20060;-83
2023/05/02 11:25:49;;;;;;;7.90;2.50;;;;;;;18.34;38.96;102544.81;5056386;28;20033;-85